sensor_id;sensor_type;location;lat;lon;timestamp;temperature;humidity
8067;DHT22;4076;48.076;9.118;2023-09-19T00:00:57;14.40;99.90
8067;DHT22;4076;48.076;9.118;2023-09-19T00:03:23;14.40;99.90
8067;DHT22;4076;48.076;9.118;2023-09-19T00:05:50;14.30;99.90
8067;DHT22;4076;48.076;9.118;2023-09-19T00:08:16;14.30;99.90
8067;DHT22;4076;48.076;9.118;2023-09-19T00:10:43;14.20;99.90
8067;DHT22;4076;48.076;9.118;2023-09-19T00:13:09;14.10;99.90
8067;DHT22;4076;48.076;9.118;2023-09-19T00:15:41;14.10;99.90
8067;DHT22;4076;48.076;9.118;2023-09-19T00:18:08;14.10;99.90
8067;DHT22;4076;48.076;9.118;2023-09-19T00:20:38;14.10;99.90
8067;DHT22;4076;48.076;9.118;2023-09-19T00:23:05;14.10;99.90
8067;DHT22;4076;48.076;9.118;2023-09-19T00:25:31;14.10;99.90
8067;DHT22;4076;48.076;9.118;2023-09-19T00:27:57;14.10;99.90
8067;DHT22;4076;48.076;9.118;2023-09-19T00:30:23;14.00;99.90
8067;DHT22;4076;48.076;9.118;2023-09-19T00:32:50;14.00;99.90
8067;DHT22;4076;48.076;9.118;2023-09-19T00:35:20;14.10;99.90
8067;DHT22;4076;48.076;9.118;2023-09-19T00:37:49;14.00;99.90
8067;DHT22;4076;48.076;9.118;2023-09-19T00:40:14;14.00;99.90
8067;DHT22;4076;48.076;9.118;2023-09-19T00:42:45;14.00;99.90
8067;DHT22;4076;48.076;9.118;2023-09-19T00:45:12;14.00;99.90
8067;DHT22;4076;48.076;9.118;2023-09-19T00:47:43;14.00;99.90
8067;DHT22;4076;48.076;9.118;2023-09-19T00:50:09;14.00;99.90
8067;DHT22;4076;48.076;9.118;2023-09-19T00:52:37;14.00;99.90
8067;DHT22;4076;48.076;9.118;2023-09-19T00:55:05;14.00;99.90
8067;DHT22;4076;48.076;9.118;2023-09-19T00:57:33;14.00;99.90
8067;DHT22;4076;48.076;9.118;2023-09-19T00:59:59;14.10;99.90
8067;DHT22;4076;48.076;9.118;2023-09-19T01:02:25;14.00;99.90
8067;DHT22;4076;48.076;9.118;2023-09-19T01:04:55;14.00;99.90
8067;DHT22;4076;48.076;9.118;2023-09-19T01:07:21;14.00;99.90
8067;DHT22;4076;48.076;9.118;2023-09-19T01:09:49;14.00;99.90
8067;DHT22;4076;48.076;9.118;2023-09-19T01:12:20;14.00;99.90
8067;DHT22;4076;48.076;9.118;2023-09-19T01:15:06;14.00;99.90
8067;DHT22;4076;48.076;9.118;2023-09-19T01:17:53;13.80;99.90
8067;DHT22;4076;48.076;9.118;2023-09-19T01:26:10;14.10;99.90
8067;DHT22;4076;48.076;9.118;2023-09-19T01:28:53;14.10;99.90
8067;DHT22;4076;48.076;9.118;2023-09-19T01:31:24;14.10;99.90
8067;DHT22;4076;48.076;9.118;2023-09-19T01:34:03;14.00;99.90
8067;DHT22;4076;48.076;9.118;2023-09-19T01:36:37;14.00;99.90
8067;DHT22;4076;48.076;9.118;2023-09-19T01:39:11;14.00;99.90
8067;DHT22;4076;48.076;9.118;2023-09-19T01:44:55;14.00;99.90
8067;DHT22;4076;48.076;9.118;2023-09-19T01:47:41;14.00;99.90
8067;DHT22;4076;48.076;9.118;2023-09-19T01:52:48;14.00;99.90
8067;DHT22;4076;48.076;9.118;2023-09-19T01:55:15;14.00;99.90
8067;DHT22;4076;48.076;9.118;2023-09-19T01:57:49;14.10;99.90
8067;DHT22;4076;48.076;9.118;2023-09-19T02:00:18;14.10;99.90
8067;DHT22;4076;48.076;9.118;2023-09-19T02:02:47;14.00;99.90
8067;DHT22;4076;48.076;9.118;2023-09-19T02:05:22;14.00;99.90
8067;DHT22;4076;48.076;9.118;2023-09-19T02:07:48;14.00;99.90
8067;DHT22;4076;48.076;9.118;2023-09-19T02:10:14;14.00;99.90
8067;DHT22;4076;48.076;9.118;2023-09-19T02:12:39;13.90;99.90
8067;DHT22;4076;48.076;9.118;2023-09-19T02:15:06;13.90;99.90
8067;DHT22;4076;48.076;9.118;2023-09-19T02:17:32;13.90;99.90
8067;DHT22;4076;48.076;9.118;2023-09-19T02:19:58;13.80;99.90
8067;DHT22;4076;48.076;9.118;2023-09-19T02:22:24;13.70;99.90
8067;DHT22;4076;48.076;9.118;2023-09-19T02:24:50;13.70;99.90
8067;DHT22;4076;48.076;9.118;2023-09-19T02:27:16;13.70;99.90
8067;DHT22;4076;48.076;9.118;2023-09-19T02:29:43;13.60;99.90
8067;DHT22;4076;48.076;9.118;2023-09-19T02:32:08;13.60;99.90
8067;DHT22;4076;48.076;9.118;2023-09-19T02:34:37;13.60;99.90
8067;DHT22;4076;48.076;9.118;2023-09-19T02:37:07;13.50;99.90
8067;DHT22;4076;48.076;9.118;2023-09-19T02:39:34;13.50;99.90
8067;DHT22;4076;48.076;9.118;2023-09-19T02:42:00;13.50;99.90
8067;DHT22;4076;48.076;9.118;2023-09-19T02:44:26;13.60;99.90
8067;DHT22;4076;48.076;9.118;2023-09-19T02:46:52;13.60;99.90
8067;DHT22;4076;48.076;9.118;2023-09-19T02:49:17;13.70;99.90
8067;DHT22;4076;48.076;9.118;2023-09-19T02:51:44;13.80;99.90
8067;DHT22;4076;48.076;9.118;2023-09-19T02:54:10;13.80;99.90
8067;DHT22;4076;48.076;9.118;2023-09-19T02:56:36;13.90;99.90
8067;DHT22;4076;48.076;9.118;2023-09-19T02:59:02;13.90;99.90
8067;DHT22;4076;48.076;9.118;2023-09-19T03:01:28;13.90;99.90
8067;DHT22;4076;48.076;9.118;2023-09-19T03:03:54;14.00;99.90
8067;DHT22;4076;48.076;9.118;2023-09-19T03:06:20;14.00;99.90
8067;DHT22;4076;48.076;9.118;2023-09-19T03:08:47;14.10;99.90
8067;DHT22;4076;48.076;9.118;2023-09-19T03:11:14;14.10;99.90
8067;DHT22;4076;48.076;9.118;2023-09-19T03:13:41;14.10;99.90
8067;DHT22;4076;48.076;9.118;2023-09-19T03:16:08;14.20;99.90
8067;DHT22;4076;48.076;9.118;2023-09-19T03:18:34;14.20;99.90
8067;DHT22;4076;48.076;9.118;2023-09-19T03:21:00;14.20;99.90
8067;DHT22;4076;48.076;9.118;2023-09-19T03:23:26;14.20;99.90
8067;DHT22;4076;48.076;9.118;2023-09-19T03:25:53;14.20;99.90
8067;DHT22;4076;48.076;9.118;2023-09-19T03:28:18;14.20;99.90
8067;DHT22;4076;48.076;9.118;2023-09-19T03:30:45;14.20;99.90
8067;DHT22;4076;48.076;9.118;2023-09-19T03:33:12;14.20;99.90
8067;DHT22;4076;48.076;9.118;2023-09-19T03:35:39;14.20;99.90
8067;DHT22;4076;48.076;9.118;2023-09-19T03:38:05;14.30;99.90
8067;DHT22;4076;48.076;9.118;2023-09-19T03:40:30;14.30;99.90
8067;DHT22;4076;48.076;9.118;2023-09-19T03:42:56;14.30;99.90
8067;DHT22;4076;48.076;9.118;2023-09-19T03:45:21;14.30;99.90
8067;DHT22;4076;48.076;9.118;2023-09-19T03:47:47;14.30;99.90
8067;DHT22;4076;48.076;9.118;2023-09-19T03:50:13;14.30;99.90
8067;DHT22;4076;48.076;9.118;2023-09-19T03:52:44;14.30;99.90
8067;DHT22;4076;48.076;9.118;2023-09-19T03:55:09;14.40;99.90
8067;DHT22;4076;48.076;9.118;2023-09-19T03:57:35;14.40;99.90
8067;DHT22;4076;48.076;9.118;2023-09-19T04:00:02;14.40;99.90
8067;DHT22;4076;48.076;9.118;2023-09-19T04:02:27;14.50;99.90
8067;DHT22;4076;48.076;9.118;2023-09-19T04:04:58;14.50;99.90
8067;DHT22;4076;48.076;9.118;2023-09-19T04:07:24;14.50;99.90
8067;DHT22;4076;48.076;9.118;2023-09-19T04:09:54;14.50;99.90
8067;DHT22;4076;48.076;9.118;2023-09-19T04:12:19;14.50;99.90
8067;DHT22;4076;48.076;9.118;2023-09-19T04:14:45;14.50;99.90
8067;DHT22;4076;48.076;9.118;2023-09-19T04:17:10;14.50;99.90
8067;DHT22;4076;48.076;9.118;2023-09-19T04:19:36;14.50;99.90
8067;DHT22;4076;48.076;9.118;2023-09-19T04:22:02;14.50;99.90
8067;DHT22;4076;48.076;9.118;2023-09-19T04:24:29;14.50;99.90
8067;DHT22;4076;48.076;9.118;2023-09-19T04:26:54;14.50;99.90
8067;DHT22;4076;48.076;9.118;2023-09-19T04:29:20;14.50;99.90
8067;DHT22;4076;48.076;9.118;2023-09-19T04:31:45;14.50;99.90
8067;DHT22;4076;48.076;9.118;2023-09-19T04:34:12;14.50;99.90
8067;DHT22;4076;48.076;9.118;2023-09-19T04:36:43;14.40;99.90
8067;DHT22;4076;48.076;9.118;2023-09-19T04:39:09;14.60;99.90
8067;DHT22;4076;48.076;9.118;2023-09-19T04:41:37;14.50;99.90
8067;DHT22;4076;48.076;9.118;2023-09-19T04:44:07;14.60;99.90
8067;DHT22;4076;48.076;9.118;2023-09-19T04:46:35;14.50;99.90
8067;DHT22;4076;48.076;9.118;2023-09-19T04:49:01;14.50;99.90
8067;DHT22;4076;48.076;9.118;2023-09-19T04:51:27;14.50;99.90
8067;DHT22;4076;48.076;9.118;2023-09-19T04:53:58;14.50;99.90
8067;DHT22;4076;48.076;9.118;2023-09-19T04:56:23;14.50;99.90
8067;DHT22;4076;48.076;9.118;2023-09-19T04:58:49;14.40;99.90
8067;DHT22;4076;48.076;9.118;2023-09-19T05:01:15;14.40;99.90
8067;DHT22;4076;48.076;9.118;2023-09-19T05:03:41;14.40;99.90
8067;DHT22;4076;48.076;9.118;2023-09-19T05:06:07;14.40;99.90
8067;DHT22;4076;48.076;9.118;2023-09-19T05:08:33;14.40;99.90
8067;DHT22;4076;48.076;9.118;2023-09-19T05:11:01;14.30;99.90
8067;DHT22;4076;48.076;9.118;2023-09-19T05:13:27;14.20;99.90
8067;DHT22;4076;48.076;9.118;2023-09-19T05:15:52;14.20;99.90
8067;DHT22;4076;48.076;9.118;2023-09-19T05:18:18;14.20;99.90
8067;DHT22;4076;48.076;9.118;2023-09-19T05:20:44;14.20;99.90
8067;DHT22;4076;48.076;9.118;2023-09-19T05:23:09;14.10;99.90
8067;DHT22;4076;48.076;9.118;2023-09-19T05:25:38;14.10;99.90
8067;DHT22;4076;48.076;9.118;2023-09-19T05:28:09;14.10;99.90
8067;DHT22;4076;48.076;9.118;2023-09-19T05:30:36;14.20;99.90
8067;DHT22;4076;48.076;9.118;2023-09-19T05:33:02;14.20;99.90
8067;DHT22;4076;48.076;9.118;2023-09-19T05:35:29;14.20;99.90
8067;DHT22;4076;48.076;9.118;2023-09-19T05:37:56;14.30;99.90
8067;DHT22;4076;48.076;9.118;2023-09-19T05:40:23;14.30;99.90
8067;DHT22;4076;48.076;9.118;2023-09-19T05:42:49;14.30;99.90
8067;DHT22;4076;48.076;9.118;2023-09-19T05:45:16;14.30;99.90
8067;DHT22;4076;48.076;9.118;2023-09-19T05:47:47;14.40;99.90
8067;DHT22;4076;48.076;9.118;2023-09-19T05:50:13;14.40;99.90
8067;DHT22;4076;48.076;9.118;2023-09-19T05:52:40;14.50;99.90
8067;DHT22;4076;48.076;9.118;2023-09-19T05:55:08;14.60;99.90
8067;DHT22;4076;48.076;9.118;2023-09-19T05:57:34;14.70;99.90
8067;DHT22;4076;48.076;9.118;2023-09-19T06:00:00;14.80;99.90
8067;DHT22;4076;48.076;9.118;2023-09-19T06:02:26;14.70;99.90
8067;DHT22;4076;48.076;9.118;2023-09-19T06:04:56;15.10;99.90
8067;DHT22;4076;48.076;9.118;2023-09-19T06:07:22;15.20;99.90
8067;DHT22;4076;48.076;9.118;2023-09-19T06:09:51;15.40;99.90
8067;DHT22;4076;48.076;9.118;2023-09-19T06:12:17;15.50;99.90
8067;DHT22;4076;48.076;9.118;2023-09-19T06:14:43;15.70;99.90
8067;DHT22;4076;48.076;9.118;2023-09-19T06:17:08;15.80;99.90
8067;DHT22;4076;48.076;9.118;2023-09-19T06:19:34;16.00;99.90
8067;DHT22;4076;48.076;9.118;2023-09-19T06:22:00;16.10;99.90
8067;DHT22;4076;48.076;9.118;2023-09-19T06:24:25;16.10;99.90
8067;DHT22;4076;48.076;9.118;2023-09-19T06:26:51;16.20;99.90
8067;DHT22;4076;48.076;9.118;2023-09-19T06:29:18;16.30;99.90
8067;DHT22;4076;48.076;9.118;2023-09-19T06:31:43;16.30;99.90
8067;DHT22;4076;48.076;9.118;2023-09-19T06:34:10;16.40;99.90
8067;DHT22;4076;48.076;9.118;2023-09-19T06:36:35;16.60;99.90
8067;DHT22;4076;48.076;9.118;2023-09-19T06:39:01;16.80;99.90
8067;DHT22;4076;48.076;9.118;2023-09-19T06:41:29;16.90;99.90
8067;DHT22;4076;48.076;9.118;2023-09-19T06:43:55;16.90;99.90
8067;DHT22;4076;48.076;9.118;2023-09-19T06:49:42;17.20;99.90
8067;DHT22;4076;48.076;9.118;2023-09-19T06:52:09;17.60;99.90
8067;DHT22;4076;48.076;9.118;2023-09-19T06:54:35;18.00;99.90
8067;DHT22;4076;48.076;9.118;2023-09-19T06:57:01;18.50;99.90
8067;DHT22;4076;48.076;9.118;2023-09-19T06:59:27;18.90;99.90
8067;DHT22;4076;48.076;9.118;2023-09-19T07:01:52;19.20;99.90
8067;DHT22;4076;48.076;9.118;2023-09-19T07:04:18;19.40;99.90
8067;DHT22;4076;48.076;9.118;2023-09-19T07:06:50;19.60;99.90
8067;DHT22;4076;48.076;9.118;2023-09-19T07:09:16;20.00;99.90
8067;DHT22;4076;48.076;9.118;2023-09-19T07:11:42;20.50;99.90
8067;DHT22;4076;48.076;9.118;2023-09-19T07:14:08;20.80;99.90
8067;DHT22;4076;48.076;9.118;2023-09-19T07:16:37;21.10;99.90
8067;DHT22;4076;48.076;9.118;2023-09-19T07:19:04;21.40;99.90
8067;DHT22;4076;48.076;9.118;2023-09-19T07:21:30;21.60;99.90
8067;DHT22;4076;48.076;9.118;2023-09-19T07:23:56;21.80;99.90
8067;DHT22;4076;48.076;9.118;2023-09-19T07:26:21;22.30;99.90
8067;DHT22;4076;48.076;9.118;2023-09-19T07:28:47;22.70;99.90
8067;DHT22;4076;48.076;9.118;2023-09-19T07:31:13;23.20;99.90
8067;DHT22;4076;48.076;9.118;2023-09-19T07:33:39;23.60;99.90
8067;DHT22;4076;48.076;9.118;2023-09-19T07:36:05;24.20;99.90
8067;DHT22;4076;48.076;9.118;2023-09-19T07:38:31;24.60;96.50
8067;DHT22;4076;48.076;9.118;2023-09-19T07:41:01;24.20;94.20
8067;DHT22;4076;48.076;9.118;2023-09-19T07:43:28;23.60;93.90
8067;DHT22;4076;48.076;9.118;2023-09-19T07:45:53;22.80;93.40
8067;DHT22;4076;48.076;9.118;2023-09-19T07:48:19;22.20;94.40
8067;DHT22;4076;48.076;9.118;2023-09-19T07:50:44;22.10;96.90
8067;DHT22;4076;48.076;9.118;2023-09-19T07:53:11;23.60;96.90
8067;DHT22;4076;48.076;9.118;2023-09-19T07:55:39;25.40;89.30
8067;DHT22;4076;48.076;9.118;2023-09-19T07:58:06;25.90;82.30
8067;DHT22;4076;48.076;9.118;2023-09-19T08:00:32;25.60;79.50
8067;DHT22;4076;48.076;9.118;2023-09-19T08:03:00;26.20;80.00
8067;DHT22;4076;48.076;9.118;2023-09-19T08:05:26;27.10;73.10
8067;DHT22;4076;48.076;9.118;2023-09-19T08:07:52;27.50;69.10
8067;DHT22;4076;48.076;9.118;2023-09-19T08:10:19;29.50;60.10
8067;DHT22;4076;48.076;9.118;2023-09-19T08:12:47;31.00;53.60
8067;DHT22;4076;48.076;9.118;2023-09-19T08:15:17;31.80;52.00
8067;DHT22;4076;48.076;9.118;2023-09-19T08:17:45;31.50;50.80
8067;DHT22;4076;48.076;9.118;2023-09-19T08:20:11;31.60;49.70
8067;DHT22;4076;48.076;9.118;2023-09-19T08:22:52;31.50;49.50
8067;DHT22;4076;48.076;9.118;2023-09-19T08:25:18;32.20;46.50
8067;DHT22;4076;48.076;9.118;2023-09-19T08:27:47;31.10;46.10
8067;DHT22;4076;48.076;9.118;2023-09-19T08:30:19;30.30;47.10
8067;DHT22;4076;48.076;9.118;2023-09-19T08:32:49;28.80;48.40
8067;DHT22;4076;48.076;9.118;2023-09-19T08:35:15;27.30;52.60
8067;DHT22;4076;48.076;9.118;2023-09-19T08:37:41;26.90;54.50
8067;DHT22;4076;48.076;9.118;2023-09-19T08:40:08;26.50;55.40
8067;DHT22;4076;48.076;9.118;2023-09-19T08:42:54;26.30;54.50
8067;DHT22;4076;48.076;9.118;2023-09-19T08:45:21;25.40;56.50
8067;DHT22;4076;48.076;9.118;2023-09-19T08:48:19;24.80;58.00
8067;DHT22;4076;48.076;9.118;2023-09-19T08:51:03;26.50;59.40
8067;DHT22;4076;48.076;9.118;2023-09-19T08:56:10;34.10;46.70
8067;DHT22;4076;48.076;9.118;2023-09-19T08:58:48;36.90;43.20
8067;DHT22;4076;48.076;9.118;2023-09-19T09:01:16;38.90;38.20
8067;DHT22;4076;48.076;9.118;2023-09-19T09:03:48;39.80;36.20
8067;DHT22;4076;48.076;9.118;2023-09-19T09:06:14;40.10;34.90
8067;DHT22;4076;48.076;9.118;2023-09-19T09:08:42;39.60;35.10
8067;DHT22;4076;48.076;9.118;2023-09-19T09:11:08;38.30;35.30
8067;DHT22;4076;48.076;9.118;2023-09-19T09:13:35;37.10;36.00
8067;DHT22;4076;48.076;9.118;2023-09-19T09:16:01;36.60;36.50
8067;DHT22;4076;48.076;9.118;2023-09-19T09:18:28;37.30;36.50
8067;DHT22;4076;48.076;9.118;2023-09-19T09:20:57;38.80;35.40
8067;DHT22;4076;48.076;9.118;2023-09-19T09:23:23;40.20;33.90
8067;DHT22;4076;48.076;9.118;2023-09-19T09:25:51;41.30;33.30
8067;DHT22;4076;48.076;9.118;2023-09-19T09:28:24;42.00;33.10
8067;DHT22;4076;48.076;9.118;2023-09-19T09:30:50;42.50;32.90
8067;DHT22;4076;48.076;9.118;2023-09-19T09:33:17;43.10;33.90
8067;DHT22;4076;48.076;9.118;2023-09-19T09:38:22;43.30;33.10
8067;DHT22;4076;48.076;9.118;2023-09-19T09:40:54;43.30;31.70
8067;DHT22;4076;48.076;9.118;2023-09-19T09:43:40;43.30;31.20
8067;DHT22;4076;48.076;9.118;2023-09-19T09:46:08;42.90;31.40
8067;DHT22;4076;48.076;9.118;2023-09-19T09:48:45;42.30;32.30
8067;DHT22;4076;48.076;9.118;2023-09-19T09:51:29;41.40;32.80
8067;DHT22;4076;48.076;9.118;2023-09-19T09:54:12;39.50;32.00
8067;DHT22;4076;48.076;9.118;2023-09-19T09:59:47;36.00;34.30
8067;DHT22;4076;48.076;9.118;2023-09-19T10:02:16;34.30;34.10
8067;DHT22;4076;48.076;9.118;2023-09-19T10:04:49;33.10;35.40
8067;DHT22;4076;48.076;9.118;2023-09-19T10:07:29;32.20;36.20
8067;DHT22;4076;48.076;9.118;2023-09-19T10:09:59;31.60;37.50
8067;DHT22;4076;48.076;9.118;2023-09-19T10:12:32;31.10;38.60
8067;DHT22;4076;48.076;9.118;2023-09-19T10:15:04;30.60;39.50
8067;DHT22;4076;48.076;9.118;2023-09-19T10:17:34;29.70;47.00
8067;DHT22;4076;48.076;9.118;2023-09-19T10:20:01;28.60;46.30
8067;DHT22;4076;48.076;9.118;2023-09-19T10:22:36;27.50;49.60
8067;DHT22;4076;48.076;9.118;2023-09-19T10:25:04;26.60;53.30
8067;DHT22;4076;48.076;9.118;2023-09-19T10:27:33;26.10;54.70
8067;DHT22;4076;48.076;9.118;2023-09-19T10:30:05;25.70;57.80
8067;DHT22;4076;48.076;9.118;2023-09-19T10:32:34;25.70;52.20
8067;DHT22;4076;48.076;9.118;2023-09-19T10:35:01;25.90;52.30
8067;DHT22;4076;48.076;9.118;2023-09-19T10:37:32;26.20;51.80
8067;DHT22;4076;48.076;9.118;2023-09-19T10:39:58;26.50;51.30
8067;DHT22;4076;48.076;9.118;2023-09-19T10:42:25;26.70;51.50
8067;DHT22;4076;48.076;9.118;2023-09-19T10:44:55;26.80;51.80
8067;DHT22;4076;48.076;9.118;2023-09-19T10:47:25;27.00;51.30
8067;DHT22;4076;48.076;9.118;2023-09-19T10:49:51;27.10;51.10
8067;DHT22;4076;48.076;9.118;2023-09-19T10:52:21;27.10;50.70
8067;DHT22;4076;48.076;9.118;2023-09-19T10:54:49;27.10;51.00
8067;DHT22;4076;48.076;9.118;2023-09-19T10:57:21;26.90;50.80
8067;DHT22;4076;48.076;9.118;2023-09-19T11:00:06;26.60;51.40
8067;DHT22;4076;48.076;9.118;2023-09-19T11:06:03;26.20;52.80
8067;DHT22;4076;48.076;9.118;2023-09-19T11:08:31;26.10;52.50
8067;DHT22;4076;48.076;9.118;2023-09-19T11:17:32;26.20;52.70
8067;DHT22;4076;48.076;9.118;2023-09-19T11:30:42;26.40;53.10
8067;DHT22;4076;48.076;9.118;2023-09-19T11:33:27;26.20;53.10
8067;DHT22;4076;48.076;9.118;2023-09-19T11:49:26;25.90;55.50
8067;DHT22;4076;48.076;9.118;2023-09-19T11:51:57;25.90;55.60
8067;DHT22;4076;48.076;9.118;2023-09-19T11:54:27;26.00;55.80
8067;DHT22;4076;48.076;9.118;2023-09-19T11:56:57;25.80;55.40
8067;DHT22;4076;48.076;9.118;2023-09-19T11:59:32;25.90;55.30
8067;DHT22;4076;48.076;9.118;2023-09-19T12:02:01;26.10;56.00
8067;DHT22;4076;48.076;9.118;2023-09-19T12:04:43;26.20;56.30
8067;DHT22;4076;48.076;9.118;2023-09-19T12:07:14;26.50;55.80
8067;DHT22;4076;48.076;9.118;2023-09-19T12:10:03;26.60;55.50
8067;DHT22;4076;48.076;9.118;2023-09-19T12:12:29;26.40;55.20
8067;DHT22;4076;48.076;9.118;2023-09-19T12:14:56;26.30;55.60
8067;DHT22;4076;48.076;9.118;2023-09-19T12:17:38;26.30;55.80
8067;DHT22;4076;48.076;9.118;2023-09-19T12:20:06;26.20;55.80
8067;DHT22;4076;48.076;9.118;2023-09-19T12:22:46;26.10;55.70
8067;DHT22;4076;48.076;9.118;2023-09-19T12:25:13;26.10;55.30
8067;DHT22;4076;48.076;9.118;2023-09-19T12:27:46;25.90;54.60
8067;DHT22;4076;48.076;9.118;2023-09-19T12:30:13;26.00;61.80
8067;DHT22;4076;48.076;9.118;2023-09-19T12:32:48;25.80;57.80
8067;DHT22;4076;48.076;9.118;2023-09-19T12:35:31;25.70;57.60
8067;DHT22;4076;48.076;9.118;2023-09-19T12:38:01;25.70;58.00
8067;DHT22;4076;48.076;9.118;2023-09-19T12:40:28;25.60;53.80
8067;DHT22;4076;48.076;9.118;2023-09-19T12:42:55;25.20;53.90
8067;DHT22;4076;48.076;9.118;2023-09-19T12:45:21;25.00;55.40
8067;DHT22;4076;48.076;9.118;2023-09-19T12:48:18;24.70;55.10
8067;DHT22;4076;48.076;9.118;2023-09-19T12:51:12;24.40;55.30
8067;DHT22;4076;48.076;9.118;2023-09-19T12:53:45;24.10;54.30
8067;DHT22;4076;48.076;9.118;2023-09-19T12:56:15;24.10;54.10
8067;DHT22;4076;48.076;9.118;2023-09-19T12:58:52;24.10;54.30
8067;DHT22;4076;48.076;9.118;2023-09-19T13:01:24;24.10;53.70
8067;DHT22;4076;48.076;9.118;2023-09-19T13:04:12;24.00;53.50
8067;DHT22;4076;48.076;9.118;2023-09-19T13:06:38;23.90;53.80
8067;DHT22;4076;48.076;9.118;2023-09-19T13:09:10;23.80;54.00
8067;DHT22;4076;48.076;9.118;2023-09-19T13:11:37;23.70;54.00
8067;DHT22;4076;48.076;9.118;2023-09-19T13:14:25;23.80;54.40
8067;DHT22;4076;48.076;9.118;2023-09-19T13:17:04;23.70;54.20
8067;DHT22;4076;48.076;9.118;2023-09-19T13:19:43;23.60;54.40
8067;DHT22;4076;48.076;9.118;2023-09-19T13:25:04;23.60;55.70
8067;DHT22;4076;48.076;9.118;2023-09-19T13:27:32;23.50;55.90
8067;DHT22;4076;48.076;9.118;2023-09-19T13:29:58;23.50;56.20
8067;DHT22;4076;48.076;9.118;2023-09-19T13:32:24;23.50;56.30
8067;DHT22;4076;48.076;9.118;2023-09-19T13:34:49;23.50;56.10
8067;DHT22;4076;48.076;9.118;2023-09-19T13:37:16;23.40;55.00
8067;DHT22;4076;48.076;9.118;2023-09-19T13:39:43;23.40;56.30
8067;DHT22;4076;48.076;9.118;2023-09-19T13:42:13;23.60;56.00
8067;DHT22;4076;48.076;9.118;2023-09-19T13:44:38;23.70;55.40
8067;DHT22;4076;48.076;9.118;2023-09-19T13:47:06;23.80;54.90
8067;DHT22;4076;48.076;9.118;2023-09-19T13:49:35;23.70;55.10
8067;DHT22;4076;48.076;9.118;2023-09-19T13:52:01;23.70;55.40
8067;DHT22;4076;48.076;9.118;2023-09-19T13:54:30;23.80;55.80
8067;DHT22;4076;48.076;9.118;2023-09-19T13:56:56;23.80;55.30
8067;DHT22;4076;48.076;9.118;2023-09-19T13:59:22;23.80;55.30
8067;DHT22;4076;48.076;9.118;2023-09-19T14:01:49;23.80;53.60
8067;DHT22;4076;48.076;9.118;2023-09-19T14:04:16;23.70;53.30
8067;DHT22;4076;48.076;9.118;2023-09-19T14:06:42;23.60;55.10
8067;DHT22;4076;48.076;9.118;2023-09-19T14:09:09;23.30;54.30
8067;DHT22;4076;48.076;9.118;2023-09-19T14:11:36;23.10;54.90
8067;DHT22;4076;48.076;9.118;2023-09-19T14:14:02;23.00;55.60
8067;DHT22;4076;48.076;9.118;2023-09-19T14:16:27;22.80;55.70
8067;DHT22;4076;48.076;9.118;2023-09-19T14:18:56;22.80;56.20
8067;DHT22;4076;48.076;9.118;2023-09-19T14:21:22;22.70;57.10
8067;DHT22;4076;48.076;9.118;2023-09-19T14:23:48;22.70;57.20
8067;DHT22;4076;48.076;9.118;2023-09-19T14:26:14;22.60;57.80
8067;DHT22;4076;48.076;9.118;2023-09-19T14:28:42;22.60;57.10
8067;DHT22;4076;48.076;9.118;2023-09-19T14:31:09;22.70;56.80
8067;DHT22;4076;48.076;9.118;2023-09-19T14:33:35;22.90;56.70
8067;DHT22;4076;48.076;9.118;2023-09-19T14:36:05;23.00;56.30
8067;DHT22;4076;48.076;9.118;2023-09-19T14:38:33;23.10;56.10
8067;DHT22;4076;48.076;9.118;2023-09-19T14:41:03;23.10;55.20
8067;DHT22;4076;48.076;9.118;2023-09-19T14:43:29;23.00;54.90
8067;DHT22;4076;48.076;9.118;2023-09-19T14:46:04;22.80;55.60
8067;DHT22;4076;48.076;9.118;2023-09-19T14:48:30;22.70;55.40
8067;DHT22;4076;48.076;9.118;2023-09-19T14:51:07;22.60;55.50
8067;DHT22;4076;48.076;9.118;2023-09-19T14:53:35;22.50;55.90
8067;DHT22;4076;48.076;9.118;2023-09-19T14:56:04;22.40;55.80
8067;DHT22;4076;48.076;9.118;2023-09-19T14:58:31;22.40;56.00
8067;DHT22;4076;48.076;9.118;2023-09-19T15:01:07;22.40;56.80
8067;DHT22;4076;48.076;9.118;2023-09-19T15:03:34;22.30;56.30
8067;DHT22;4076;48.076;9.118;2023-09-19T15:06:02;22.30;56.90
8067;DHT22;4076;48.076;9.118;2023-09-19T15:08:28;22.30;58.50
8067;DHT22;4076;48.076;9.118;2023-09-19T15:10:53;22.30;58.10
8067;DHT22;4076;48.076;9.118;2023-09-19T15:13:19;22.20;57.90
8067;DHT22;4076;48.076;9.118;2023-09-19T15:15:45;22.20;58.70
8067;DHT22;4076;48.076;9.118;2023-09-19T15:18:13;22.10;61.20
8067;DHT22;4076;48.076;9.118;2023-09-19T15:20:45;22.00;61.40
8067;DHT22;4076;48.076;9.118;2023-09-19T15:23:11;22.00;61.10
8067;DHT22;4076;48.076;9.118;2023-09-19T15:25:37;21.80;63.90
8067;DHT22;4076;48.076;9.118;2023-09-19T15:28:05;21.60;67.60
8067;DHT22;4076;48.076;9.118;2023-09-19T15:30:39;21.50;68.00
8067;DHT22;4076;48.076;9.118;2023-09-19T15:33:04;21.40;69.90
8067;DHT22;4076;48.076;9.118;2023-09-19T15:35:30;21.50;69.80
8067;DHT22;4076;48.076;9.118;2023-09-19T15:37:56;21.40;69.50
8067;DHT22;4076;48.076;9.118;2023-09-19T15:40:22;21.30;70.10
8067;DHT22;4076;48.076;9.118;2023-09-19T15:42:49;21.30;69.20
8067;DHT22;4076;48.076;9.118;2023-09-19T15:45:15;21.30;69.80
8067;DHT22;4076;48.076;9.118;2023-09-19T15:47:42;21.30;70.90
8067;DHT22;4076;48.076;9.118;2023-09-19T15:50:08;21.30;70.00
8067;DHT22;4076;48.076;9.118;2023-09-19T15:52:41;21.30;69.40
8067;DHT22;4076;48.076;9.118;2023-09-19T15:55:08;21.30;70.20
8067;DHT22;4076;48.076;9.118;2023-09-19T15:57:37;21.30;69.70
8067;DHT22;4076;48.076;9.118;2023-09-19T16:00:04;21.30;71.10
8067;DHT22;4076;48.076;9.118;2023-09-19T16:02:36;21.30;71.10
8067;DHT22;4076;48.076;9.118;2023-09-19T16:05:02;21.30;70.50
8067;DHT22;4076;48.076;9.118;2023-09-19T16:07:31;21.30;69.60
8067;DHT22;4076;48.076;9.118;2023-09-19T16:09:56;21.20;69.80
8067;DHT22;4076;48.076;9.118;2023-09-19T16:12:22;21.30;69.80
8067;DHT22;4076;48.076;9.118;2023-09-19T16:14:48;21.30;68.80
8067;DHT22;4076;48.076;9.118;2023-09-19T16:17:14;21.30;68.80
8067;DHT22;4076;48.076;9.118;2023-09-19T16:19:40;21.30;70.00
8067;DHT22;4076;48.076;9.118;2023-09-19T16:22:06;21.30;70.30
8067;DHT22;4076;48.076;9.118;2023-09-19T16:24:33;21.30;70.80
8067;DHT22;4076;48.076;9.118;2023-09-19T16:26:59;21.20;71.70
8067;DHT22;4076;48.076;9.118;2023-09-19T16:29:25;21.10;71.60
8067;DHT22;4076;48.076;9.118;2023-09-19T16:31:50;21.10;71.70
8067;DHT22;4076;48.076;9.118;2023-09-19T16:34:16;20.90;72.40
8067;DHT22;4076;48.076;9.118;2023-09-19T16:36:41;20.90;71.40
8067;DHT22;4076;48.076;9.118;2023-09-19T16:39:07;20.80;71.70
8067;DHT22;4076;48.076;9.118;2023-09-19T16:41:33;20.70;73.20
8067;DHT22;4076;48.076;9.118;2023-09-19T16:44:00;20.60;74.60
8067;DHT22;4076;48.076;9.118;2023-09-19T16:46:25;20.50;75.90
8067;DHT22;4076;48.076;9.118;2023-09-19T16:48:51;20.30;76.00
8067;DHT22;4076;48.076;9.118;2023-09-19T16:51:17;20.20;77.50
8067;DHT22;4076;48.076;9.118;2023-09-19T16:53:43;20.10;79.00
8067;DHT22;4076;48.076;9.118;2023-09-19T16:56:12;20.00;78.90
8067;DHT22;4076;48.076;9.118;2023-09-19T16:58:45;19.80;80.70
8067;DHT22;4076;48.076;9.118;2023-09-19T17:03:44;19.40;73.40
8067;DHT22;4076;48.076;9.118;2023-09-19T17:06:12;19.20;77.50
8067;DHT22;4076;48.076;9.118;2023-09-19T17:08:40;19.00;80.90
8067;DHT22;4076;48.076;9.118;2023-09-19T17:11:10;18.90;82.50
8067;DHT22;4076;48.076;9.118;2023-09-19T17:13:43;18.80;81.80